Time;durP1;ratioP1;P1;durP2;ratioP2;P2;SDS_P1;SDS_P2;PMS_P1;PMS_P2;Temp;Humidity;BMP_temperature;BMP_pressure;BME280_temperature;BME280_humidity;BME280_pressure;Samples;Min_cycle;Max_cycle;Signal;HPM_P1;HPM_P2
2024/03/30 00:01:32;;;;;;;0.60;0.30;;;10.80;99.90;;;;;;5034374;28;20028;-88
2024/03/30 00:03:58;;;;;;;0.50;0.22;;;10.80;99.90;;;;;;5043691;28;20029;-88
2024/03/30 00:06:24;;;;;;;0.75;0.30;;;10.70;99.90;;;;;;5026223;28;20021;-87
2024/03/30 00:08:49;;;;;;;0.85;0.30;;;10.70;99.90;;;;;;5034269;28;20052;-88
2024/03/30 00:11:15;;;;;;;0.90;0.28;;;10.70;99.90;;;;;;5030214;28;20025;-85
2024/03/30 00:13:40;;;;;;;1.02;0.43;;;10.70;99.90;;;;;;5012769;28;20034;-87
2024/03/30 00:16:10;;;;;;;0.98;0.30;;;10.70;99.90;;;;;;5030303;28;20083;-87
2024/03/30 00:18:36;;;;;;;0.73;0.30;;;10.70;99.90;;;;;;5031806;28;20091;-87
2024/03/30 00:21:03;;;;;;;1.15;0.28;;;10.70;99.90;;;;;;5036669;28;20088;-86
2024/03/30 00:23:31;;;;;;;0.73;0.30;;;10.60;99.90;;;;;;5045280;28;20481;-86
2024/03/30 00:25:57;;;;;;;1.42;0.32;;;10.60;99.90;;;;;;5042215;28;20029;-85
2024/03/30 00:28:23;;;;;;;0.85;0.30;;;10.70;99.90;;;;;;5031108;28;20171;-85
2024/03/30 00:30:50;;;;;;;1.38;0.30;;;10.60;99.90;;;;;;5033497;28;20025;-87
2024/03/30 00:33:16;;;;;;;0.85;0.40;;;10.60;99.90;;;;;;5035384;28;20442;-85
2024/03/30 00:35:42;;;;;;;1.20;0.30;;;10.60;99.90;;;;;;5036265;28;20118;-87
2024/03/30 00:38:08;;;;;;;1.08;0.30;;;10.60;99.90;;;;;;5034268;28;20037;-86
2024/03/30 00:40:35;;;;;;;1.17;0.30;;;10.60;99.90;;;;;;5041338;28;20491;-85
2024/03/30 00:43:01;;;;;;;0.63;0.30;;;10.50;99.90;;;;;;5040838;28;20049;-85
2024/03/30 00:45:27;;;;;;;0.65;0.30;;;10.50;99.90;;;;;;5033288;28;20124;-85
2024/03/30 00:47:53;;;;;;;0.90;0.30;;;10.50;99.90;;;;;;5039056;28;20116;-84
2024/03/30 00:50:19;;;;;;;0.93;0.30;;;10.50;99.90;;;;;;5041452;28;20554;-84
2024/03/30 00:52:44;;;;;;;1.60;0.40;;;10.50;99.90;;;;;;5042708;28;20412;-84
2024/03/30 00:55:10;;;;;;;2.28;0.30;;;10.50;99.90;;;;;;5034909;28;20120;-84
2024/03/30 00:57:41;;;;;;;1.50;0.20;;;10.50;99.90;;;;;;5035321;28;20022;-85
2024/03/30 01:00:10;;;;;;;1.48;0.20;;;10.50;99.90;;;;;;5039132;28;20035;-87
2024/03/30 01:02:38;;;;;;;0.95;0.35;;;10.50;99.90;;;;;;5015696;28;20029;-87
2024/03/30 01:05:04;;;;;;;0.63;0.20;;;10.50;99.90;;;;;;5010858;28;20024;-84
2024/03/30 01:07:30;;;;;;;0.80;0.40;;;10.50;99.90;;;;;;5022061;28;20040;-85
2024/03/30 01:09:56;;;;;;;0.30;0.13;;;10.40;99.90;;;;;;5031314;28;20400;-86
2024/03/30 01:12:21;;;;;;;0.95;0.22;;;10.40;99.90;;;;;;5030480;28;20033;-85
2024/03/30 01:14:47;;;;;;;0.50;0.30;;;10.40;99.90;;;;;;5041309;28;20640;-83
2024/03/30 01:17:13;;;;;;;0.45;0.20;;;10.30;99.90;;;;;;5035082;28;20388;-84
2024/03/30 01:19:39;;;;;;;1.10;0.30;;;10.30;99.90;;;;;;5031397;28;20033;-86
2024/03/30 01:22:05;;;;;;;0.85;0.30;;;10.20;99.90;;;;;;5037824;28;20055;-86
2024/03/30 01:24:31;;;;;;;0.70;0.30;;;10.20;99.90;;;;;;5039260;28;20037;-87
2024/03/30 01:26:57;;;;;;;0.40;0.20;;;10.20;99.90;;;;;;5035807;28;20033;-87
2024/03/30 01:29:24;;;;;;;0.40;0.15;;;10.20;99.90;;;;;;5043061;28;20483;-89
2024/03/30 01:31:53;;;;;;;1.80;0.20;;;10.20;99.90;;;;;;5033806;28;20025;-88
2024/03/30 01:34:19;;;;;;;0.77;0.32;;;10.20;99.90;;;;;;5025655;28;20025;-89
2024/03/30 01:36:45;;;;;;;1.92;0.30;;;10.20;99.90;;;;;;5036069;28;20044;-89
2024/03/30 01:39:11;;;;;;;0.77;0.30;;;10.20;99.90;;;;;;5030866;28;20029;-88
2024/03/30 01:41:37;;;;;;;1.00;0.25;;;10.10;99.90;;;;;;5035702;28;20029;-86
2024/03/30 01:44:04;;;;;;;0.63;0.20;;;10.10;99.90;;;;;;5030946;28;20036;-85
2024/03/30 01:46:30;;;;;;;1.00;0.30;;;10.10;99.90;;;;;;5032919;28;20029;-85
2024/03/30 01:48:56;;;;;;;2.00;0.43;;;10.10;99.90;;;;;;5043858;28;20087;-82
2024/03/30 01:51:23;;;;;;;0.52;0.30;;;10.20;99.90;;;;;;5041063;28;20029;-81
2024/03/30 01:53:49;;;;;;;0.90;0.25;;;10.20;99.90;;;;;;5037063;28;20039;-82
2024/03/30 01:56:15;;;;;;;0.65;0.20;;;10.10;99.90;;;;;;5021951;28;20128;-82
2024/03/30 01:58:41;;;;;;;0.80;0.20;;;10.10;99.90;;;;;;5035453;28;20030;-81
2024/03/30 02:01:07;;;;;;;0.82;0.30;;;10.10;99.90;;;;;;5031230;28;20569;-80
2024/03/30 02:03:33;;;;;;;0.98;0.30;;;10.00;99.90;;;;;;5032875;28;20037;-82
2024/03/30 02:05:59;;;;;;;1.75;0.63;;;10.10;99.90;;;;;;5030282;28;20125;-82
2024/03/30 02:08:27;;;;;;;1.55;0.45;;;10.00;99.90;;;;;;5023525;28;20469;-81
2024/03/30 02:10:53;;;;;;;2.33;0.63;;;10.10;99.90;;;;;;5036796;28;20724;-81
2024/03/30 02:13:19;;;;;;;2.03;0.70;;;10.00;99.90;;;;;;5025336;28;20021;-81
2024/03/30 02:15:45;;;;;;;1.67;0.60;;;10.10;99.90;;;;;;5034345;28;20532;-81
2024/03/30 02:18:11;;;;;;;1.55;0.70;;;10.10;99.90;;;;;;5039187;28;20108;-81
2024/03/30 02:20:36;;;;;;;1.00;0.60;;;10.10;99.90;;;;;;5031491;28;21097;-81
2024/03/30 02:23:02;;;;;;;2.28;0.80;;;10.10;99.90;;;;;;5037976;28;20071;-81
2024/03/30 02:25:28;;;;;;;2.55;0.98;;;10.10;99.90;;;;;;5034184;28;20083;-81
2024/03/30 02:27:53;;;;;;;2.38;0.90;;;10.10;99.90;;;;;;5029093;28;20519;-83
2024/03/30 02:30:29;;;;;;;1.98;0.73;;;10.10;99.90;;;;;;5037637;28;20033;-83
2024/03/30 02:32:56;;;;;;;2.42;0.80;;;10.20;99.90;;;;;;5035159;28;20072;-83
2024/03/30 02:35:22;;;;;;;1.85;0.88;;;10.20;99.90;;;;;;5015420;28;20470;-81
2024/03/30 02:37:48;;;;;;;1.77;0.80;;;10.10;99.90;;;;;;5029199;28;20064;-81
2024/03/30 02:40:14;;;;;;;1.83;1.08;;;10.20;99.90;;;;;;5047568;28;20444;-81
2024/03/30 02:42:40;;;;;;;1.83;1.10;;;10.10;99.90;;;;;;5003688;28;20036;-81
2024/03/30 02:45:08;;;;;;;2.92;1.50;;;10.10;99.90;;;;;;5029695;28;20029;-80
2024/03/30 02:47:34;;;;;;;3.60;1.30;;;10.10;99.90;;;;;;5035782;28;20036;-81
2024/03/30 02:50:01;;;;;;;2.42;1.40;;;10.10;99.90;;;;;;5033420;28;20420;-81
2024/03/30 02:52:27;;;;;;;2.45;1.30;;;10.10;99.90;;;;;;5019824;28;20034;-81
2024/03/30 02:54:52;;;;;;;2.92;1.30;;;10.10;99.90;;;;;;5035361;28;20088;-82
2024/03/30 02:57:18;;;;;;;3.95;1.75;;;10.10;99.90;;;;;;5032274;28;20032;-82
2024/03/30 02:59:43;;;;;;;1.83;1.23;;;10.10;99.90;;;;;;5034148;28;20476;-83
2024/03/30 03:02:09;;;;;;;2.20;1.42;;;10.10;99.90;;;;;;5042480;28;20028;-83
2024/03/30 03:04:34;;;;;;;2.03;1.10;;;10.00;99.90;;;;;;5044989;28;20033;-85
2024/03/30 03:07:03;;;;;;;2.20;1.20;;;10.10;99.90;;;;;;5034689;28;20371;-83
2024/03/30 03:09:28;;;;;;;2.67;1.60;;;10.00;99.90;;;;;;5032761;28;20060;-84
2024/03/30 03:11:54;;;;;;;2.00;1.48;;;10.00;99.90;;;;;;5031177;28;20025;-84
2024/03/30 03:14:19;;;;;;;3.65;1.83;;;10.00;99.90;;;;;;5038704;28;20033;-85
2024/03/30 03:16:45;;;;;;;4.50;1.60;;;10.00;99.90;;;;;;5035945;28;20110;-86
2024/03/30 03:19:10;;;;;;;2.80;2.10;;;10.00;99.90;;;;;;5036012;28;20042;-84
2024/03/30 03:21:36;;;;;;;3.40;2.10;;;9.90;99.90;;;;;;5027865;28;20033;-83
2024/03/30 03:24:02;;;;;;;4.15;2.60;;;9.90;99.90;;;;;;5024299;28;20517;-84
2024/03/30 03:26:27;;;;;;;4.78;2.17;;;9.90;99.90;;;;;;5036974;28;20037;-82
2024/03/30 03:28:53;;;;;;;2.85;2.20;;;9.90;99.90;;;;;;5031153;28;20022;-86
2024/03/30 03:31:18;;;;;;;3.85;2.38;;;9.90;99.90;;;;;;5038241;28;20036;-82
2024/03/30 03:33:44;;;;;;;3.75;2.63;;;9.90;99.90;;;;;;5035068;28;20033;-83
2024/03/30 03:36:10;;;;;;;3.83;2.42;;;9.90;99.90;;;;;;5032773;28;20037;-83
2024/03/30 03:38:46;;;;;;;4.45;2.80;;;9.90;99.90;;;;;;5034545;28;20017;-82
2024/03/30 03:41:15;;;;;;;5.97;2.80;;;9.80;99.90;;;;;;5029461;28;20016;-82
2024/03/30 03:43:42;;;;;;;3.83;2.63;;;9.80;99.90;;;;;;5036248;28;20036;-81
2024/03/30 03:46:08;;;;;;;3.95;2.90;;;9.80;99.90;;;;;;5040121;28;20040;-81
2024/03/30 03:48:33;;;;;;;3.50;2.25;;;9.80;99.90;;;;;;5033262;28;20108;-81
2024/03/30 03:50:59;;;;;;;4.43;3.10;;;9.80;99.90;;;;;;5042038;28;20121;-80
2024/03/30 03:53:25;;;;;;;4.05;3.28;;;9.70;99.90;;;;;;5034006;28;20040;-81
2024/03/30 03:55:50;;;;;;;5.18;2.97;;;9.70;99.90;;;;;;5035139;28;20504;-81
2024/03/30 03:58:16;;;;;;;5.82;3.40;;;9.80;99.90;;;;;;5033113;28;20573;-83
2024/03/30 04:00:42;;;;;;;3.30;2.55;;;9.70;99.90;;;;;;5033177;28;20104;-84
2024/03/30 04:03:09;;;;;;;3.80;3.28;;;9.70;99.90;;;;;;5051922;28;20029;-84
2024/03/30 04:05:37;;;;;;;4.35;3.38;;;9.80;99.90;;;;;;5041036;28;20107;-86
2024/03/30 04:08:03;;;;;;;6.95;3.58;;;9.70;99.90;;;;;;5032409;28;20052;-85
2024/03/30 04:10:29;;;;;;;4.25;3.40;;;9.70;99.90;;;;;;5045631;28;20492;-85
2024/03/30 04:12:54;;;;;;;5.55;3.35;;;9.70;99.90;;;;;;5033367;28;20029;-82
2024/03/30 04:15:20;;;;;;;4.40;3.55;;;9.70;99.90;;;;;;5037858;28;20028;-81
2024/03/30 04:17:47;;;;;;;4.53;3.78;;;9.70;99.90;;;;;;5034734;28;20025;-81
2024/03/30 04:20:12;;;;;;;4.68;3.53;;;9.70;99.90;;;;;;5042716;28;20125;-82
2024/03/30 04:22:38;;;;;;;6.95;3.42;;;9.60;99.90;;;;;;5036358;28;20080;-79
2024/03/30 04:25:04;;;;;;;5.07;3.42;;;9.60;99.90;;;;;;5028630;28;20039;-79
2024/03/30 04:27:30;;;;;;;5.50;3.60;;;9.60;99.90;;;;;;5037658;28;20048;-79
2024/03/30 04:29:58;;;;;;;5.10;3.78;;;9.60;99.90;;;;;;5039940;28;20128;-80
2024/03/30 04:32:24;;;;;;;5.13;3.80;;;9.60;99.90;;;;;;5040465;28;20017;-81
2024/03/30 04:34:49;;;;;;;4.30;3.20;;;9.60;99.90;;;;;;5036546;28;20559;-81
2024/03/30 04:37:15;;;;;;;5.10;3.83;;;9.60;99.90;;;;;;5028943;28;20052;-81
2024/03/30 04:39:44;;;;;;;5.03;4.10;;;9.60;99.90;;;;;;5026243;28;20044;-80
2024/03/30 04:42:10;;;;;;;5.18;4.20;;;9.60;99.90;;;;;;5035284;28;20021;-81
2024/03/30 04:44:36;;;;;;;6.03;4.15;;;9.60;99.90;;;;;;5036776;28;20037;-81
2024/03/30 04:47:03;;;;;;;7.63;5.07;;;9.60;99.90;;;;;;5034268;28;20033;-82
2024/03/30 04:49:29;;;;;;;10.23;5.18;;;9.60;99.90;;;;;;5036866;28;20029;-81
2024/03/30 04:51:55;;;;;;;7.03;5.50;;;9.60;99.90;;;;;;5033457;28;20032;-82
2024/03/30 04:54:21;;;;;;;8.60;6.18;;;9.60;99.90;;;;;;5031732;28;20029;-83
2024/03/30 04:56:46;;;;;;;6.97;5.95;;;9.60;99.90;;;;;;5032108;28;20041;-85
2024/03/30 04:59:18;;;;;;;8.73;7.05;;;9.60;99.90;;;;;;5031341;28;20025;-84
2024/03/30 05:01:44;;;;;;;8.10;6.70;;;9.60;99.90;;;;;;5033986;28;20107;-83
2024/03/30 05:04:09;;;;;;;9.23;7.60;;;9.60;99.90;;;;;;5033962;28;20469;-82
2024/03/30 05:06:35;;;;;;;10.75;7.53;;;9.60;99.90;;;;;;5025641;28;20030;-84
2024/03/30 05:09:01;;;;;;;11.32;7.78;;;9.60;99.90;;;;;;5036813;28;20074;-80
2024/03/30 05:11:26;;;;;;;9.43;7.72;;;9.60;99.90;;;;;;5037061;28;20033;-80
2024/03/30 05:13:52;;;;;;;9.90;8.27;;;9.60;99.90;;;;;;5039231;28;20037;-80
2024/03/30 05:16:17;;;;;;;10.32;8.38;;;9.60;99.90;;;;;;5024158;28;20129;-80
2024/03/30 05:18:43;;;;;;;11.02;8.57;;;9.60;99.90;;;;;;5030916;28;20084;-80
2024/03/30 05:21:10;;;;;;;12.43;10.05;;;9.50;99.90;;;;;;5029812;28;20083;-80
2024/03/30 05:23:37;;;;;;;12.85;10.45;;;9.60;99.90;;;;;;5031776;28;20032;-79
2024/03/30 05:26:04;;;;;;;11.07;8.77;;;9.60;99.90;;;;;;5033487;28;20999;-80
2024/03/30 05:28:36;;;;;;;12.93;10.20;;;9.60;99.90;;;;;;5035277;28;20043;-81
2024/03/30 05:31:10;;;;;;;13.30;10.30;;;9.60;99.90;;;;;;5039489;28;20037;-81
2024/03/30 05:33:36;;;;;;;13.30;9.35;;;9.60;99.90;;;;;;5041472;28;20029;-80
2024/03/30 05:36:02;;;;;;;12.40;10.18;;;9.60;99.90;;;;;;5030732;28;20056;-87
2024/03/30 05:38:27;;;;;;;13.85;10.55;;;9.60;99.90;;;;;;5014959;28;20465;-88
2024/03/30 05:40:56;;;;;;;10.75;8.82;;;9.60;99.90;;;;;;5032913;28;20036;-83
2024/03/30 05:43:22;;;;;;;13.90;11.02;;;9.60;99.90;;;;;;5043105;28;20031;-83
2024/03/30 05:45:50;;;;;;;12.70;10.15;;;9.60;99.90;;;;;;5030227;28;20037;-83
2024/03/30 05:48:15;;;;;;;14.98;11.02;;;9.60;99.90;;;;;;5018171;28;20033;-83
2024/03/30 05:50:41;;;;;;;13.00;10.00;;;9.60;99.90;;;;;;5029540;28;20037;-83
2024/03/30 05:53:07;;;;;;;11.02;9.20;;;9.60;99.90;;;;;;5041746;28;20082;-89
2024/03/30 05:55:32;;;;;;;11.90;8.77;;;9.60;99.90;;;;;;5037504;28;20037;-88
2024/03/30 05:58:03;;;;;;;13.13;10.35;;;9.60;99.90;;;;;;5026734;28;20477;-87
2024/03/30 06:00:30;;;;;;;16.27;9.50;;;9.60;99.90;;;;;;5010002;28;20186;-84
2024/03/30 06:02:55;;;;;;;10.55;8.65;;;9.60;99.90;;;;;;5031011;28;20021;-80
2024/03/30 06:05:21;;;;;;;10.77;9.55;;;9.50;99.90;;;;;;5041435;28;20029;-82
2024/03/30 06:07:47;;;;;;;11.18;8.93;;;9.60;99.90;;;;;;5026628;28;20105;-82
2024/03/30 06:10:12;;;;;;;13.70;9.40;;;9.60;99.90;;;;;;5027407;28;20192;-82
2024/03/30 06:12:38;;;;;;;12.85;9.95;;;9.60;99.90;;;;;;5024155;28;20038;-82
2024/03/30 06:15:05;;;;;;;12.02;8.95;;;9.60;99.90;;;;;;5032699;28;20428;-82
2024/03/30 06:17:38;;;;;;;11.43;9.45;;;9.60;99.90;;;;;;5030713;28;20061;-82
2024/03/30 06:20:07;;;;;;;12.77;9.10;;;9.60;99.90;;;;;;5024398;28;20090;-81
2024/03/30 06:22:33;;;;;;;12.25;8.68;;;9.60;99.90;;;;;;5031765;28;20040;-82
2024/03/30 06:24:59;;;;;;;11.65;9.25;;;9.60;99.90;;;;;;5044481;28;20456;-82
2024/03/30 06:27:25;;;;;;;11.60;8.85;;;9.60;99.90;;;;;;5039667;28;20025;-87
2024/03/30 06:29:50;;;;;;;10.68;8.32;;;9.60;99.90;;;;;;5045672;28;20112;-81
2024/03/30 06:32:17;;;;;;;9.63;7.47;;;9.60;99.90;;;;;;5036326;28;20118;-85
2024/03/30 06:34:42;;;;;;;9.98;7.20;;;9.70;99.90;;;;;;5045094;28;20124;-81
2024/03/30 06:37:08;;;;;;;13.50;8.63;;;9.70;99.90;;;;;;5021982;28;20108;-83
2024/03/30 06:45:02;;;;;;;11.35;7.65;;;9.80;99.90;;;;;;5030081;28;20028;-81
2024/03/30 06:47:27;;;;;;;9.68;7.80;;;9.80;99.90;;;;;;5028144;28;20026;-83
2024/03/30 06:49:53;;;;;;;10.90;7.43;;;9.80;99.90;;;;;;5023263;28;20067;-81
2024/03/30 06:52:19;;;;;;;12.52;7.90;;;9.80;99.90;;;;;;5025883;28;20033;-84
2024/03/30 06:54:44;;;;;;;13.73;8.23;;;9.80;99.90;;;;;;5016563;28;20049;-92
2024/03/30 06:57:10;;;;;;;11.68;8.13;;;9.90;99.90;;;;;;5017963;28;20516;-81
2024/03/30 06:59:35;;;;;;;15.18;8.43;;;9.90;99.90;;;;;;5023142;28;20033;-80
2024/03/30 07:02:01;;;;;;;14.48;8.98;;;10.00;99.90;;;;;;5025104;28;20473;-82
2024/03/30 07:04:27;;;;;;;14.13;9.15;;;10.00;99.90;;;;;;5036511;28;20029;-81
2024/03/30 07:06:52;;;;;;;13.15;9.20;;;10.00;99.90;;;;;;5020878;28;20034;-81
2024/03/30 07:09:18;;;;;;;14.48;9.15;;;10.10;99.90;;;;;;5028030;28;20505;-81
2024/03/30 07:11:43;;;;;;;13.88;9.15;;;10.10;99.90;;;;;;5016809;28;20033;-80
2024/03/30 07:14:09;;;;;;;18.95;10.15;;;10.20;99.90;;;;;;5036225;28;20025;-81
2024/03/30 07:16:35;;;;;;;18.08;11.50;;;10.30;99.90;;;;;;5033184;28;20405;-81
2024/03/30 07:19:00;;;;;;;15.95;11.55;;;10.30;99.90;;;;;;5029483;28;20041;-81
2024/03/30 07:21:26;;;;;;;14.45;10.10;;;10.30;99.90;;;;;;5007819;28;20600;-81
2024/03/30 07:23:54;;;;;;;16.02;11.70;;;10.30;99.90;;;;;;5009159;28;20033;-80
2024/03/30 07:26:20;;;;;;;17.27;12.32;;;10.40;99.90;;;;;;5024935;28;20504;-80
2024/03/30 07:28:45;;;;;;;18.73;12.30;;;10.40;99.90;;;;;;5028299;28;20032;-79
2024/03/30 07:31:11;;;;;;;16.92;13.02;;;10.40;99.90;;;;;;5037390;28;20039;-80
2024/03/30 07:33:37;;;;;;;20.75;12.63;;;10.50;99.90;;;;;;5030584;28;20113;-81
2024/03/30 07:36:03;;;;;;;18.08;12.43;;;10.50;99.90;;;;;;5026775;28;20458;-79
2024/03/30 07:38:31;;;;;;;18.30;11.68;;;10.50;99.90;;;;;;5032020;28;20128;-80
2024/03/30 07:40:57;;;;;;;15.60;12.95;;;10.60;99.90;;;;;;5031378;28;20029;-80
2024/03/30 07:43:23;;;;;;;15.90;12.63;;;10.60;99.90;;;;;;5034160;28;20053;-82
2024/03/30 07:45:49;;;;;;;15.35;11.00;;;10.60;99.90;;;;;;5032503;28;20056;-81
2024/03/30 07:48:15;;;;;;;16.55;12.35;;;10.60;99.90;;;;;;5039301;28;20064;-80
2024/03/30 07:50:40;;;;;;;16.67;12.00;;;10.60;99.90;;;;;;5027522;28;20032;-81
2024/03/30 07:53:06;;;;;;;18.13;12.30;;;10.60;99.90;;;;;;5018413;28;20025;-81
2024/03/30 07:55:32;;;;;;;15.82;11.38;;;10.60;99.90;;;;;;5043687;28;20041;-81
2024/03/30 07:57:58;;;;;;;16.27;12.70;;;10.60;99.90;;;;;;5039601;28;20477;-81
2024/03/30 08:00:24;;;;;;;16.25;11.85;;;10.70;99.90;;;;;;5049381;28;20036;-82
2024/03/30 08:02:50;;;;;;;14.82;11.82;;;10.60;99.90;;;;;;5031108;28;20029;-79
2024/03/30 08:05:17;;;;;;;15.27;12.02;;;10.70;99.90;;;;;;5050830;28;20492;-81
2024/03/30 08:07:43;;;;;;;20.85;11.23;;;10.70;99.90;;;;;;5033069;28;20022;-82
2024/03/30 08:10:08;;;;;;;15.10;12.13;;;10.70;99.90;;;;;;5029971;28;20052;-81
2024/03/30 08:12:34;;;;;;;12.40;10.80;;;10.80;99.90;;;;;;5031349;28;20053;-81
2024/03/30 08:15:00;;;;;;;15.73;12.25;;;10.90;99.90;;;;;;5021588;28;20060;-81
2024/03/30 08:17:25;;;;;;;15.60;12.80;;;11.10;99.90;;;;;;5019698;28;20029;-81
2024/03/30 08:19:51;;;;;;;13.13;11.38;;;11.20;99.90;;;;;;5019945;28;20104;-81
2024/03/30 08:22:16;;;;;;;13.25;11.38;;;11.40;99.90;;;;;;5023707;28;20029;-81
2024/03/30 08:24:42;;;;;;;14.07;11.90;;;11.60;99.90;;;;;;5020423;28;20033;-81
2024/03/30 08:27:08;;;;;;;11.00;9.85;;;11.70;99.90;;;;;;5018066;28;20026;-81
2024/03/30 08:29:33;;;;;;;12.73;9.90;;;11.90;99.90;;;;;;5019317;28;20362;-80
2024/03/30 08:31:59;;;;;;;14.35;10.15;;;12.00;99.90;;;;;;5022819;28;20021;-80
2024/03/30 08:34:25;;;;;;;12.68;10.23;;;12.10;99.90;;;;;;5020682;28;20107;-81
2024/03/30 08:36:50;;;;;;;11.63;9.32;;;12.10;99.90;;;;;;5017420;28;20061;-81
2024/03/30 08:39:17;;;;;;;11.68;9.15;;;12.20;99.90;;;;;;5004613;28;20029;-81
2024/03/30 08:41:42;;;;;;;9.90;8.48;;;12.40;99.90;;;;;;5015353;28;20037;-81
2024/03/30 08:44:08;;;;;;;10.13;8.00;;;12.50;99.90;;;;;;5018324;28;20401;-81
2024/03/30 08:46:33;;;;;;;11.55;8.88;;;12.50;99.90;;;;;;5014335;28;20026;-81
2024/03/30 08:49:06;;;;;;;12.05;9.45;;;12.50;99.90;;;;;;5020119;28;20029;-81
2024/03/30 08:51:32;;;;;;;10.85;9.18;;;12.50;99.90;;;;;;5019458;28;20029;-81
2024/03/30 08:54:04;;;;;;;11.63;8.50;;;12.60;99.90;;;;;;5018979;28;20775;-80
2024/03/30 08:56:30;;;;;;;11.23;9.02;;;12.60;99.90;;;;;;5019793;28;20029;-80
2024/03/30 08:58:56;;;;;;;12.35;9.52;;;12.60;99.90;;;;;;5005560;28;20036;-80
2024/03/30 09:01:22;;;;;;;9.93;8.48;;;12.70;99.90;;;;;;5018958;28;20641;-80
2024/03/30 09:03:48;;;;;;;8.98;7.57;;;12.80;99.90;;;;;;5021716;28;20477;-81
2024/03/30 09:06:14;;;;;;;9.50;7.80;;;12.90;99.90;;;;;;5017912;28;20037;-81
2024/03/30 09:08:40;;;;;;;10.07;7.80;;;13.00;99.90;;;;;;5018864;28;20405;-82
2024/03/30 09:11:06;;;;;;;8.88;7.05;;;13.10;99.90;;;;;;5020219;28;20034;-82
2024/03/30 09:13:31;;;;;;;10.80;7.93;;;13.20;99.90;;;;;;5018571;28;20417;-81
2024/03/30 09:15:57;;;;;;;10.65;7.95;;;13.30;99.90;;;;;;5022376;28;20512;-81
2024/03/30 09:18:23;;;;;;;13.27;6.95;;;13.40;99.90;;;;;;5021802;28;20026;-81
2024/03/30 09:20:49;;;;;;;9.02;7.32;;;13.50;99.90;;;;;;5034934;28;20037;-81
2024/03/30 09:23:15;;;;;;;10.65;6.53;;;13.50;99.90;;;;;;5022140;28;20018;-83
2024/03/30 09:25:42;;;;;;;10.35;5.80;;;13.60;99.90;;;;;;5022334;28;20060;-82
2024/03/30 09:28:07;;;;;;;8.88;5.75;;;13.60;99.90;;;;;;5019945;28;20017;-82
2024/03/30 09:30:33;;;;;;;14.98;6.50;;;13.70;99.90;;;;;;5035466;28;20573;-82
2024/03/30 09:32:59;;;;;;;10.13;5.63;;;13.70;99.90;;;;;;5021543;28;20022;-82
2024/03/30 09:35:25;;;;;;;12.88;5.78;;;13.70;99.90;;;;;;5028125;28;20048;-82
2024/03/30 09:37:51;;;;;;;15.90;6.22;;;13.80;99.90;;;;;;5042643;28;20029;-81
2024/03/30 09:40:16;;;;;;;12.45;6.03;;;13.80;99.90;;;;;;5039111;28;20071;-81
2024/03/30 09:42:43;;;;;;;14.18;5.55;;;13.90;99.90;;;;;;5022537;28;20039;-81
2024/03/30 09:45:12;;;;;;;13.20;6.13;;;13.80;99.90;;;;;;5036288;28;20026;-81
2024/03/30 09:47:46;;;;;;;15.63;5.88;;;13.90;99.90;;;;;;5031740;28;20037;-80
2024/03/30 09:53:01;;;;;;;10.20;4.70;;;14.00;99.90;;;;;;5034805;22;20508;-79
2024/03/30 09:55:28;;;;;;;12.70;5.32;;;14.00;99.90;;;;;;5016121;28;20029;-79
2024/03/30 09:57:54;;;;;;;11.63;5.88;;;14.00;99.90;;;;;;5025070;28;20389;-80
2024/03/30 10:00:20;;;;;;;17.38;5.57;;;14.00;99.90;;;;;;5024016;28;20025;-81
2024/03/30 10:02:46;;;;;;;13.30;5.13;;;14.00;99.90;;;;;;5032305;28;20507;-82
2024/03/30 10:05:13;;;;;;;12.70;4.97;;;14.00;99.90;;;;;;5018558;28;20381;-82
2024/03/30 10:07:58;;;;;;;15.57;5.30;;;14.10;99.90;;;;;;5032129;28;20030;-81
2024/03/30 10:10:25;;;;;;;16.13;4.80;;;14.10;99.90;;;;;;5016106;28;20022;-81
2024/03/30 10:13:20;;;;;;;14.25;6.20;;;14.20;99.90;;;;;;5038271;28;20029;-82
2024/03/30 10:15:50;;;;;;;14.98;5.45;;;14.20;99.90;;;;;;5028881;28;21974;-81
2024/03/30 10:18:16;;;;;;;12.65;5.57;;;14.30;99.90;;;;;;5024141;28;20060;-80
2024/03/30 10:20:42;;;;;;;12.43;5.78;;;14.40;99.90;;;;;;5019049;28;20026;-81
2024/03/30 10:23:08;;;;;;;17.40;6.15;;;14.40;99.90;;;;;;5033697;28;20071;-80
2024/03/30 10:25:37;;;;;;;13.00;5.68;;;14.40;99.90;;;;;;5021452;28;20037;-80
2024/03/30 10:28:05;;;;;;;11.98;5.50;;;14.30;99.90;;;;;;5034530;28;20026;-82
2024/03/30 10:30:30;;;;;;;23.45;6.60;;;14.30;99.90;;;;;;5033463;28;20034;-80
2024/03/30 10:33:01;;;;;;;16.77;5.63;;;14.20;99.90;;;;;;5034586;28;20034;-81
2024/03/30 10:35:27;;;;;;;20.90;6.53;;;14.20;99.90;;;;;;5030010;28;20396;-80
2024/03/30 10:37:52;;;;;;;18.80;7.13;;;14.30;99.90;;;;;;5026551;28;20108;-80
2024/03/30 10:40:18;;;;;;;17.35;7.00;;;14.40;99.90;;;;;;5034429;28;20477;-80
2024/03/30 10:42:44;;;;;;;14.32;5.60;;;14.60;99.90;;;;;;5030036;28;20367;-81
2024/03/30 10:45:09;;;;;;;17.58;6.90;;;14.80;99.90;;;;;;5026353;28;20033;-81
2024/03/30 10:47:37;;;;;;;24.90;7.35;;;14.90;99.90;;;;;;5034497;28;20492;-80
2024/03/30 10:50:03;;;;;;;19.10;5.93;;;15.10;99.90;;;;;;5026271;28;20033;-82
2024/03/30 10:52:30;;;;;;;20.38;6.35;;;15.30;99.90;;;;;;5034431;28;20543;-80
2024/03/30 10:54:58;;;;;;;18.00;5.88;;;15.50;99.90;;;;;;5035333;28;20033;-82
2024/03/30 10:57:25;;;;;;;20.15;6.40;;;15.60;99.90;;;;;;5013818;28;20504;-82
2024/03/30 11:00:03;;;;;;;21.80;7.63;;;15.70;99.90;;;;;;5032176;28;21026;-82
2024/03/30 11:02:31;;;;;;;23.38;6.38;;;15.80;99.90;;;;;;5024218;28;20152;-81
2024/03/30 11:04:58;;;;;;;25.73;7.85;;;15.90;99.90;;;;;;5014731;28;20112;-82
2024/03/30 11:07:25;;;;;;;20.42;6.95;;;16.00;99.90;;;;;;5012024;28;20351;-82
2024/03/30 11:09:51;;;;;;;19.42;6.25;;;16.00;99.90;;;;;;5033076;28;20022;-82
2024/03/30 11:12:17;;;;;;;19.42;6.20;;;16.00;99.90;;;;;;5034064;28;20115;-81
2024/03/30 11:14:43;;;;;;;31.73;7.47;;;16.00;99.90;;;;;;5030827;28;20117;-81
2024/03/30 11:17:28;;;;;;;22.95;6.90;;;16.00;99.90;;;;;;5031343;28;20025;-81
2024/03/30 11:20:04;;;;;;;15.05;6.10;;;16.00;99.90;;;;;;5017484;28;20029;-82
2024/03/30 11:23:00;;;;;;;19.13;6.07;;;16.00;99.90;;;;;;5027098;28;20042;-82
2024/03/30 11:25:30;;;;;;;30.50;6.53;;;16.00;99.90;;;;;;5027926;28;20026;-82
2024/03/30 11:28:08;;;;;;;26.90;6.20;;;15.90;99.90;;;;;;5029780;28;20124;-82
2024/03/30 11:30:38;;;;;;;22.73;4.75;;;15.90;99.90;;;;;;5027753;28;20105;-83
2024/03/30 11:33:11;;;;;;;28.00;6.43;;;15.90;99.90;;;;;;5032472;28;20457;-82
2024/03/30 11:35:47;;;;;;;23.15;4.75;;;15.90;99.90;;;;;;5031246;28;20473;-83
2024/03/30 11:38:15;;;;;;;28.98;4.95;;;15.80;99.90;;;;;;5033994;28;20386;-82
2024/03/30 11:40:56;;;;;;;21.90;4.07;;;15.80;99.90;;;;;;5032949;28;20032;-82
2024/03/30 11:43:28;;;;;;;23.77;3.53;;;15.80;99.90;;;;;;5026895;28;20578;-81
2024/03/30 11:45:54;;;;;;;20.95;3.83;;;15.80;99.90;;;;;;5032265;28;20369;-82
2024/03/30 11:48:20;;;;;;;20.08;2.38;;;15.80;99.90;;;;;;5037687;28;20086;-82
2024/03/30 11:50:46;;;;;;;23.63;3.15;;;16.00;99.90;;;;;;5028049;28;20088;-82
2024/03/30 11:53:19;;;;;;;12.98;2.58;;;16.20;99.90;;;;;;5031805;28;20081;-82
2024/03/30 11:55:49;;;;;;;18.48;2.63;;;16.40;99.90;;;;;;5033080;28;20124;-81
2024/03/30 11:58:23;;;;;;;17.55;2.63;;;16.40;99.90;;;;;;5024005;28;20030;-82
2024/03/30 12:00:57;;;;;;;21.00;3.60;;;16.50;99.90;;;;;;5030062;28;20033;-81
2024/03/30 12:03:28;;;;;;;24.10;3.92;;;16.40;99.90;;;;;;5028073;28;20116;-84
2024/03/30 12:05:55;;;;;;;23.25;3.00;;;16.30;99.90;;;;;;5032779;28;20026;-81
2024/03/30 12:08:23;;;;;;;28.35;2.45;;;16.10;99.90;;;;;;5033750;28;20120;-80
2024/03/30 12:10:57;;;;;;;20.13;2.20;;;16.10;99.90;;;;;;5022267;28;20632;-82
2024/03/30 12:13:25;;;;;;;19.02;1.90;;;16.10;99.90;;;;;;5019271;28;20381;-81
2024/03/30 12:15:51;;;;;;;13.88;1.45;;;16.00;99.90;;;;;;5013685;28;20174;-82
2024/03/30 12:18:18;;;;;;;21.90;2.00;;;16.00;99.90;;;;;;5026623;28;20076;-83
2024/03/30 12:20:44;;;;;;;19.10;2.17;;;15.90;99.90;;;;;;5025152;28;20100;-83
2024/03/30 12:23:14;;;;;;;15.65;1.88;;;15.90;99.90;;;;;;5034309;28;20519;-83
2024/03/30 12:25:42;;;;;;;12.73;1.52;;;15.90;99.90;;;;;;5012758;28;20049;-83
2024/03/30 12:28:08;;;;;;;14.32;1.55;;;15.80;99.90;;;;;;5013407;28;20062;-83
2024/03/30 12:30:50;;;;;;;17.17;1.65;;;15.70;99.90;;;;;;5031609;28;20029;-84
2024/03/30 12:33:15;;;;;;;9.43;1.65;;;15.70;99.90;;;;;;5024805;28;20028;-84
2024/03/30 12:35:43;;;;;;;14.02;1.58;;;15.50;99.90;;;;;;5016441;28;20038;-84
2024/03/30 12:38:15;;;;;;;12.10;1.42;;;15.60;99.90;;;;;;5037161;28;20028;-83
2024/03/30 12:40:42;;;;;;;;;;;15.60;99.90;;;;;;5036947;28;20116;-83
2024/03/30 12:43:11;;;;;;;11.02;1.20;;;15.70;99.90;;;;;;5034144;28;19905;-83
2024/03/30 12:45:37;;;;;;;10.38;1.35;;;15.70;99.90;;;;;;5032565;28;20485;-82
2024/03/30 12:48:03;;;;;;;10.63;1.10;;;15.80;99.90;;;;;;5030611;28;20021;-83
2024/03/30 12:50:28;;;;;;;11.02;2.50;;;15.80;99.90;;;;;;5034855;28;20515;-83